Time;durP1;ratioP1;P1;durP2;ratioP2;P2;SDS_P1;SDS_P2;PMS_P1;PMS_P2;Temp;Humidity;BMP_temperature;BMP_pressure;BME280_temperature;BME280_humidity;BME280_pressure;Samples;Min_cycle;Max_cycle;Signal;HPM_P1;HPM_P2
2021/01/17 00:01:05;;;;;;;31.57;14.87;;;-9.70;82.70;;;;;;4939940;28;20966;-80
2021/01/17 00:03:32;;;;;;;19.57;9.80;;;-9.90;82.70;;;;;;4937972;29;20468;-78
2021/01/17 00:06:04;;;;;;;30.63;14.27;;;-10.00;82.60;;;;;;4941297;28;20483;-80
2021/01/17 00:08:31;;;;;;;21.40;11.33;;;-10.00;82.40;;;;;;4945719;28;20470;-79
2021/01/17 00:10:59;;;;;;;23.90;12.37;;;-10.10;82.20;;;;;;4946012;28;20465;-80
2021/01/17 00:13:26;;;;;;;18.10;10.20;;;-10.10;82.00;;;;;;4938633;29;20477;-81
2021/01/17 00:15:54;;;;;;;15.50;9.37;;;-10.20;82.20;;;;;;4958826;28;20532;-82
2021/01/17 00:18:22;;;;;;;20.83;12.50;;;-10.20;82.40;;;;;;4951340;28;20484;-80
2021/01/17 00:21:09;;;;;;;23.90;14.17;;;-10.30;81.70;;;;;;4944331;28;20546;-80
2021/01/17 00:23:37;;;;;;;19.43;10.60;;;-10.40;82.40;;;;;;4938076;28;20739;-81
2021/01/17 00:26:05;;;;;;;20.03;9.20;;;-10.40;82.60;;;;;;4939884;28;20961;-79
2021/01/17 00:28:33;;;;;;;20.60;11.73;;;-10.40;82.70;;;;;;4933375;28;20468;-80
2021/01/17 00:31:00;;;;;;;21.83;11.00;;;-10.40;82.80;;;;;;4932600;28;20506;-79
2021/01/17 00:33:28;;;;;;;22.73;12.23;;;-10.40;82.80;;;;;;4942288;28;20521;-80
2021/01/17 00:35:56;;;;;;;11.03;6.77;;;-10.40;82.70;;;;;;4930332;28;20471;-80
2021/01/17 00:38:27;;;;;;;19.23;9.90;;;-10.40;82.80;;;;;;4930850;28;20497;-80
2021/01/17 00:40:55;;;;;;;19.47;9.33;;;-10.40;82.60;;;;;;4938783;28;20530;-79
2021/01/17 00:43:23;;;;;;;24.83;11.50;;;-10.40;82.00;;;;;;4931690;28;20511;-80
2021/01/17 00:45:50;;;;;;;18.90;10.50;;;-10.50;82.10;;;;;;4927429;28;20459;-79
2021/01/17 00:48:18;;;;;;;28.93;14.37;;;-10.50;82.20;;;;;;4929480;28;20481;-78
2021/01/17 00:50:45;;;;;;;23.40;12.43;;;-10.60;82.30;;;;;;4944077;29;20457;-80
2021/01/17 00:53:13;;;;;;;20.23;9.60;;;-10.60;82.40;;;;;;4935648;29;20545;-80
2021/01/17 00:55:42;;;;;;;21.83;11.60;;;-10.60;82.40;;;;;;4950917;28;20592;-80
2021/01/17 00:58:10;;;;;;;30.20;13.40;;;-10.60;82.20;;;;;;4955966;28;20533;-82
2021/01/17 01:00:37;;;;;;;20.67;11.50;;;-10.60;82.30;;;;;;4942411;28;20457;-80
2021/01/17 01:03:05;;;;;;;21.97;8.67;;;-10.60;82.40;;;;;;4942664;29;20981;-79
2021/01/17 01:05:33;;;;;;;14.17;7.67;;;-10.70;82.00;;;;;;4944789;28;20571;-80
2021/01/17 01:08:05;;;;;;;26.13;14.43;;;-10.70;82.30;;;;;;4947159;28;20840;-81
2021/01/17 01:10:34;;;;;;;25.40;13.80;;;-10.60;82.70;;;;;;4941536;28;20482;-81
2021/01/17 01:13:03;;;;;;;22.20;11.73;;;-10.60;82.50;;;;;;4931399;29;20469;-80
2021/01/17 01:15:31;;;;;;;19.13;9.73;;;-10.60;82.70;;;;;;4939520;28;20479;-78
2021/01/17 01:18:00;;;;;;;29.20;14.53;;;-10.60;82.70;;;;;;4934089;29;20489;-80
2021/01/17 01:20:28;;;;;;;15.30;9.97;;;-10.70;82.70;;;;;;4942355;29;20708;-80
2021/01/17 01:22:56;;;;;;;14.90;8.67;;;-10.70;82.90;;;;;;4936350;28;20460;-80
2021/01/17 01:25:23;;;;;;;27.63;13.33;;;-10.80;82.40;;;;;;4940586;28;20525;-78
2021/01/17 01:27:54;;;;;;;20.97;9.67;;;-10.80;82.30;;;;;;4927734;28;20475;-79
2021/01/17 01:30:23;;;;;;;19.27;9.50;;;-10.80;83.00;;;;;;4947247;28;20632;-79
2021/01/17 01:32:51;;;;;;;23.53;10.90;;;-10.80;82.80;;;;;;4951997;28;20532;-78
2021/01/17 01:35:20;;;;;;;18.57;9.57;;;-10.90;82.50;;;;;;4931498;29;20500;-80
2021/01/17 01:37:48;;;;;;;27.30;13.70;;;-10.90;82.60;;;;;;4933954;28;20520;-81
2021/01/17 01:40:15;;;;;;;22.30;12.17;;;-10.90;83.10;;;;;;4928927;28;20473;-80
2021/01/17 01:42:43;;;;;;;25.13;14.47;;;-10.80;83.30;;;;;;4931037;28;20465;-79
2021/01/17 01:45:12;;;;;;;23.33;11.47;;;-10.80;83.30;;;;;;4936646;28;20551;-80
2021/01/17 01:47:41;;;;;;;16.73;9.83;;;-10.90;82.80;;;;;;4932147;28;20917;-81
2021/01/17 01:50:11;;;;;;;32.73;13.73;;;-10.80;82.90;;;;;;4932259;29;20752;-80
2021/01/17 01:52:38;;;;;;;13.17;8.63;;;-10.90;82.90;;;;;;4940215;28;20476;-81
2021/01/17 01:55:07;;;;;;;29.77;15.13;;;-10.90;83.20;;;;;;4931741;29;20814;-81
2021/01/17 01:57:36;;;;;;;30.07;14.43;;;-10.90;82.70;;;;;;4935306;28;20504;-79
2021/01/17 02:00:05;;;;;;;18.73;9.57;;;-10.90;82.70;;;;;;4933214;28;20742;-78
2021/01/17 02:02:42;;;;;;;24.87;11.57;;;-10.90;83.00;;;;;;4934870;28;20543;-80
2021/01/17 02:05:11;;;;;;;28.63;12.60;;;-11.00;82.90;;;;;;4942661;28;20470;-79
2021/01/17 02:08:07;;;;;;;21.80;11.30;;;-11.00;83.30;;;;;;4945223;28;20497;-81
2021/01/17 02:10:36;;;;;;;18.53;8.00;;;-11.00;83.30;;;;;;4940687;28;20484;-80
2021/01/17 02:13:12;;;;;;;18.00;9.80;;;-11.00;83.40;;;;;;4927663;29;20476;-79
2021/01/17 02:15:41;;;;;;;24.27;13.10;;;-11.00;83.50;;;;;;4938819;28;20487;-81
2021/01/17 02:18:12;;;;;;;23.97;10.27;;;-11.00;83.40;;;;;;4936895;29;20847;-81
2021/01/17 02:20:41;;;;;;;29.23;13.63;;;-10.90;83.20;;;;;;4953637;28;20703;-80
2021/01/17 02:23:15;;;;;;;18.07;7.77;;;-11.30;83.10;;;;;;4960354;28;20460;-80
2021/01/17 02:25:44;;;;;;;32.77;13.97;;;-11.10;83.40;;;;;;4951607;28;20456;-81
2021/01/17 02:28:15;;;;;;;29.03;9.80;;;-11.10;83.40;;;;;;4945348;28;20458;-80
2021/01/17 02:30:46;;;;;;;9.10;6.70;;;-11.10;83.40;;;;;;4951477;28;20461;-79
2021/01/17 02:33:18;;;;;;;13.47;8.80;;;-11.10;83.30;;;;;;4955292;28;20469;-81
2021/01/17 02:35:47;;;;;;;17.83;9.80;;;-11.20;83.40;;;;;;4944748;28;20454;-78
2021/01/17 02:38:27;;;;;;;20.03;10.27;;;-11.30;83.30;;;;;;4950476;28;20629;-80
2021/01/17 02:41:07;;;;;;;20.27;9.73;;;-11.20;83.60;;;;;;4931565;28;20750;-78
2021/01/17 02:43:35;;;;;;;28.03;14.47;;;-11.30;83.60;;;;;;4938389;28;20469;-80
2021/01/17 02:46:03;;;;;;;20.30;11.83;;;-11.30;84.00;;;;;;4939093;28;20979;-79
2021/01/17 02:48:31;;;;;;;18.83;10.87;;;-11.30;84.20;;;;;;4934967;28;20475;-80
2021/01/17 02:50:59;;;;;;;23.17;10.47;;;-11.30;84.30;;;;;;4929057;28;20467;-80
2021/01/17 02:53:32;;;;;;;23.23;11.27;;;-11.30;84.10;;;;;;4938360;28;20817;-81
2021/01/17 02:56:03;;;;;;;20.60;11.47;;;-11.40;84.10;;;;;;4927593;29;20473;-80
2021/01/17 02:58:34;;;;;;;10.47;7.30;;;-11.40;84.00;;;;;;4932866;28;20674;-79
2021/01/17 03:01:04;;;;;;;18.80;10.53;;;-11.40;84.10;;;;;;4927975;28;20658;-79
2021/01/17 03:03:40;;;;;;;26.17;11.70;;;-11.40;84.00;;;;;;4938221;28;20594;-80
2021/01/17 03:06:10;;;;;;;13.17;7.60;;;-11.50;83.60;;;;;;4929172;28;20472;-80
2021/01/17 03:08:38;;;;;;;19.90;11.70;;;-11.40;83.60;;;;;;4951701;28;20463;-76
2021/01/17 03:11:07;;;;;;;22.13;12.30;;;-11.50;83.70;;;;;;4934105;28;20461;-79
2021/01/17 03:13:38;;;;;;;8.50;6.77;;;-11.50;84.10;;;;;;4931352;28;20769;-80
2021/01/17 03:16:06;;;;;;;21.53;11.43;;;-11.40;83.90;;;;;;4931063;28;20505;-79
2021/01/17 03:18:34;;;;;;;20.53;10.50;;;-11.60;83.90;;;;;;4933897;28;20540;-80
2021/01/17 03:21:02;;;;;;;20.23;11.23;;;-11.60;83.90;;;;;;4940501;28;20485;-80
2021/01/17 03:23:29;;;;;;;20.33;10.90;;;-11.60;84.20;;;;;;4943339;28;20479;-80
2021/01/17 03:25:57;;;;;;;20.23;10.70;;;-11.50;84.40;;;;;;4955309;28;20452;-80
2021/01/17 03:28:26;;;;;;;18.60;8.60;;;-11.50;84.50;;;;;;4925964;28;20549;-81
2021/01/17 03:30:53;;;;;;;21.60;11.27;;;-11.50;84.40;;;;;;4948325;28;20469;-80
2021/01/17 03:33:24;;;;;;;23.73;12.43;;;-11.50;84.60;;;;;;4954463;28;20467;-80
2021/01/17 03:35:51;;;;;;;21.63;11.23;;;-11.50;84.70;;;;;;4934661;28;20477;-78
2021/01/17 03:38:19;;;;;;;18.60;9.40;;;-11.50;84.20;;;;;;4927905;28;20811;-80
2021/01/17 03:40:46;;;;;;;11.47;5.77;;;-11.60;84.20;;;;;;4945122;28;20560;-80
2021/01/17 03:43:14;;;;;;;23.40;10.60;;;-11.50;84.50;;;;;;4926861;28;20470;-80
2021/01/17 03:45:42;;;;;;;23.07;11.00;;;-11.50;84.50;;;;;;4938787;28;20537;-80
2021/01/17 03:48:10;;;;;;;23.47;10.83;;;-11.50;84.20;;;;;;4935994;28;20458;-79
2021/01/17 03:50:38;;;;;;;22.50;10.53;;;-11.50;84.00;;;;;;4943936;29;20460;-81
2021/01/17 03:53:05;;;;;;;19.73;11.30;;;-11.50;83.90;;;;;;4949968;28;20651;-80
2021/01/17 03:55:32;;;;;;;28.20;12.87;;;-11.50;83.90;;;;;;4957327;28;20458;-81
2021/01/17 03:58:00;;;;;;;24.70;12.43;;;-11.50;83.70;;;;;;4933222;28;21099;-79
2021/01/17 04:00:27;;;;;;;31.03;13.13;;;-11.50;83.50;;;;;;4944972;28;20476;-80
2021/01/17 04:02:57;;;;;;;23.60;10.90;;;-11.50;83.70;;;;;;4945902;29;20489;-79
2021/01/17 04:05:25;;;;;;;27.87;13.27;;;-11.50;83.80;;;;;;4943877;28;20489;-79
2021/01/17 04:07:53;;;;;;;25.40;12.30;;;-11.50;83.20;;;;;;4951234;28;20483;-79
2021/01/17 04:10:20;;;;;;;19.97;10.00;;;-11.60;83.40;;;;;;4953476;28;20625;-81
2021/01/17 04:12:48;;;;;;;24.03;12.67;;;-11.60;83.10;;;;;;4944914;28;20469;-79
2021/01/17 04:15:15;;;;;;;15.23;8.27;;;-11.60;82.80;;;;;;4942633;28;20461;-80
2021/01/17 04:17:46;;;;;;;29.67;13.93;;;-11.60;83.00;;;;;;4929916;28;20501;-79
2021/01/17 04:20:15;;;;;;;19.57;10.43;;;-11.70;82.90;;;;;;4938677;29;20636;-79
2021/01/17 04:22:42;;;;;;;21.53;10.23;;;-11.70;83.40;;;;;;4945282;28;20472;-79
2021/01/17 04:25:11;;;;;;;21.63;10.03;;;-11.70;83.50;;;;;;4933282;28;20931;-79
2021/01/17 04:27:39;;;;;;;11.90;7.33;;;-11.80;83.30;;;;;;4939597;29;20465;-79
2021/01/17 04:30:11;;;;;;;11.93;7.47;;;-11.80;83.30;;;;;;4944023;28;20472;-79
2021/01/17 04:32:39;;;;;;;18.93;8.93;;;-11.80;83.50;;;;;;4932362;28;20476;-80
2021/01/17 04:35:09;;;;;;;22.70;11.10;;;-11.80;83.50;;;;;;4937247;28;20472;-80
2021/01/17 04:37:37;;;;;;;27.97;11.87;;;-11.80;83.30;;;;;;4926988;28;20485;-80
2021/01/17 04:40:07;;;;;;;24.67;11.37;;;-11.80;83.30;;;;;;4933638;28;20468;-79
2021/01/17 04:42:36;;;;;;;16.80;7.87;;;-11.80;83.50;;;;;;4932863;28;20489;-80
2021/01/17 04:45:09;;;;;;;16.00;8.20;;;-11.80;83.20;;;;;;4926728;28;20480;-82
2021/01/17 04:47:39;;;;;;;13.07;5.80;;;-11.80;83.10;;;;;;4930644;28;20496;-81
2021/01/17 04:50:09;;;;;;;23.80;12.73;;;-11.80;83.00;;;;;;4928578;28;20505;-81
2021/01/17 04:52:42;;;;;;;19.30;8.63;;;-11.90;82.80;;;;;;4932400;28;20845;-81
2021/01/17 04:55:11;;;;;;;23.93;11.17;;;-11.90;83.00;;;;;;4916197;29;20465;-79
2021/01/17 04:57:51;;;;;;;20.10;11.60;;;-11.90;83.00;;;;;;4929520;29;20500;-79
2021/01/17 05:00:25;;;;;;;19.83;12.80;;;-12.00;83.10;;;;;;4933785;29;20475;-79
2021/01/17 05:03:05;;;;;;;25.17;11.57;;;-11.90;83.00;;;;;;4924762;28;20468;-80
2021/01/17 05:05:41;;;;;;;12.97;6.97;;;-11.90;83.20;;;;;;4920733;28;21315;-78
2021/01/17 05:08:31;;;;;;;29.00;12.87;;;-11.70;83.30;;;;;;4928712;28;20964;-79
2021/01/17 05:11:03;;;;;;;24.73;9.20;;;-11.80;83.20;;;;;;4926630;28;20560;-80
2021/01/17 05:13:37;;;;;;;19.50;10.47;;;-11.80;83.10;;;;;;4926798;28;20711;-80
2021/01/17 05:16:06;;;;;;;25.93;12.53;;;-11.90;82.90;;;;;;4928118;28;20566;-80
2021/01/17 05:18:46;;;;;;;24.90;12.77;;;-11.80;83.20;;;;;;4955710;28;20496;-79
2021/01/17 05:21:21;;;;;;;8.80;6.20;;;-11.80;83.30;;;;;;4949537;28;20470;-80
2021/01/17 05:23:55;;;;;;;22.23;12.50;;;-11.80;83.20;;;;;;4947720;28;20480;-80
2021/01/17 05:26:22;;;;;;;27.77;12.57;;;-11.80;83.10;;;;;;4938416;29;20464;-79
2021/01/17 05:28:50;;;;;;;24.63;11.77;;;-11.80;83.40;;;;;;4925071;28;20473;-80
2021/01/17 05:31:18;;;;;;;15.27;8.47;;;-11.70;83.60;;;;;;4924079;28;20461;-79
2021/01/17 05:33:46;;;;;;;25.20;13.37;;;-11.50;83.40;;;;;;4930697;28;20730;-79
2021/01/17 05:36:16;;;;;;;27.47;13.77;;;-11.70;83.20;;;;;;4925909;29;20481;-82
2021/01/17 05:38:43;;;;;;;27.93;14.60;;;-11.70;83.30;;;;;;4927067;29;20591;-79
2021/01/17 05:41:25;;;;;;;10.10;5.90;;;-11.70;83.10;;;;;;4934761;28;20461;-79
2021/01/17 05:43:52;;;;;;;25.43;11.87;;;-11.70;82.90;;;;;;4925109;28;20474;-79
2021/01/17 05:46:20;;;;;;;24.83;13.53;;;-11.70;83.00;;;;;;4944451;28;21002;-79
2021/01/17 05:48:48;;;;;;;13.77;7.70;;;-11.70;83.20;;;;;;4940145;28;20469;-79
2021/01/17 05:51:26;;;;;;;25.10;12.40;;;-11.70;83.10;;;;;;4936974;28;20746;-78
2021/01/17 05:53:55;;;;;;;24.37;11.20;;;-11.70;83.30;;;;;;4934079;28;20696;-79
2021/01/17 05:56:24;;;;;;;32.37;13.70;;;-11.60;83.50;;;;;;4922527;29;20508;-80
2021/01/17 05:58:52;;;;;;;28.53;15.47;;;-11.60;83.10;;;;;;4938081;28;20500;-80
2021/01/17 06:01:20;;;;;;;32.80;14.67;;;-11.60;83.30;;;;;;4941506;28;20466;-79
2021/01/17 06:03:49;;;;;;;21.73;12.77;;;-11.60;83.40;;;;;;4927521;28;20970;-80
2021/01/17 06:06:26;;;;;;;28.97;14.90;;;-11.50;83.30;;;;;;4936296;28;20500;-80
2021/01/17 06:08:55;;;;;;;26.23;13.57;;;-11.60;83.10;;;;;;4945039;28;20563;-80
2021/01/17 06:11:23;;;;;;;27.57;14.00;;;-11.60;83.30;;;;;;4921063;29;20496;-78
2021/01/17 06:13:55;;;;;;;31.37;13.57;;;-11.60;83.60;;;;;;4946120;28;20500;-79
2021/01/17 06:16:30;;;;;;;19.00;9.50;;;-11.50;83.60;;;;;;4945092;28;20533;-80
2021/01/17 06:18:59;;;;;;;14.70;7.73;;;-11.60;83.40;;;;;;4932394;29;20600;-80
2021/01/17 06:21:29;;;;;;;34.63;14.57;;;-11.70;83.30;;;;;;4921952;28;20468;-81
2021/01/17 06:23:59;;;;;;;19.63;11.37;;;-11.70;83.40;;;;;;4930049;28;20470;-79
2021/01/17 06:26:29;;;;;;;27.93;11.87;;;-11.70;83.60;;;;;;4944830;28;20476;-79
2021/01/17 06:28:58;;;;;;;37.87;15.53;;;-11.70;83.50;;;;;;4928375;28;20472;-80
2021/01/17 06:31:27;;;;;;;25.17;10.90;;;-11.70;83.60;;;;;;4949446;28;20598;-79
2021/01/17 06:34:05;;;;;;;17.43;6.63;;;-11.70;83.60;;;;;;4932793;28;20469;-79
2021/01/17 06:36:34;;;;;;;16.87;8.70;;;-11.60;83.70;;;;;;4934909;28;20479;-79
2021/01/17 06:39:03;;;;;;;33.00;13.83;;;-11.60;83.80;;;;;;4934378;28;20703;-79
2021/01/17 06:41:37;;;;;;;25.30;13.43;;;-11.60;83.80;;;;;;4929266;29;20472;-79
2021/01/17 06:44:09;;;;;;;32.60;14.30;;;-11.50;84.10;;;;;;4944422;28;20458;-79
2021/01/17 06:46:43;;;;;;;29.30;14.57;;;-11.50;84.00;;;;;;4954548;28;20555;-78
2021/01/17 06:49:20;;;;;;;17.80;8.00;;;-11.50;83.70;;;;;;4943364;28;20462;-79
2021/01/17 06:51:48;;;;;;;11.63;5.60;;;-11.50;83.30;;;;;;4919941;29;20561;-80
2021/01/17 06:54:21;;;;;;;25.60;12.83;;;-11.60;83.30;;;;;;4937709;28;20464;-80
2021/01/17 06:56:50;;;;;;;8.90;5.93;;;-11.50;83.50;;;;;;4922450;28;20623;-80
2021/01/17 06:59:33;;;;;;;23.73;11.53;;;-11.50;83.40;;;;;;4932869;29;20572;-80
2021/01/17 07:02:22;;;;;;;29.17;13.03;;;-11.50;83.60;;;;;;4919675;29;20685;-80
2021/01/17 07:05:17;;;;;;;11.97;6.77;;;-11.50;83.30;;;;;;4933800;28;20475;-79
2021/01/17 07:08:03;;;;;;;29.47;14.47;;;-11.40;83.50;;;;;;4944525;28;20468;-78
2021/01/17 07:10:40;;;;;;;13.97;8.10;;;-11.40;83.50;;;;;;4937956;28;20473;-79
2021/01/17 07:13:10;;;;;;;40.90;16.07;;;-11.40;83.40;;;;;;4947252;28;20865;-79
2021/01/17 07:15:39;;;;;;;31.23;14.97;;;-11.30;83.50;;;;;;4933972;28;20461;-80
2021/01/17 07:18:10;;;;;;;23.43;10.17;;;-11.30;83.20;;;;;;4957442;28;20497;-78
2021/01/17 07:20:40;;;;;;;32.30;14.93;;;-11.30;82.90;;;;;;4948519;28;20888;-80
2021/01/17 07:23:10;;;;;;;31.97;14.57;;;-11.30;82.80;;;;;;4930183;28;20891;-79
2021/01/17 07:25:39;;;;;;;19.77;10.67;;;-11.40;82.70;;;;;;4930080;28;20464;-80
2021/01/17 07:28:10;;;;;;;23.87;11.40;;;-11.30;82.70;;;;;;4924635;28;20464;-80
2021/01/17 07:30:52;;;;;;;28.10;14.07;;;-11.30;82.90;;;;;;4919780;28;20770;-79
2021/01/17 07:33:24;;;;;;;30.03;13.90;;;-11.20;82.80;;;;;;4937665;28;20517;-80
2021/01/17 07:35:53;;;;;;;27.30;14.40;;;-11.10;82.80;;;;;;4918866;29;20470;-79
2021/01/17 07:38:22;;;;;;;33.07;16.13;;;-11.10;82.60;;;;;;4921216;29;21146;-79
2021/01/17 07:40:53;;;;;;;28.83;14.87;;;-11.00;82.60;;;;;;4933050;28;20456;-80
2021/01/17 07:43:25;;;;;;;34.97;14.63;;;-10.90;82.30;;;;;;4932880;28;20468;-78
2021/01/17 07:45:53;;;;;;;12.17;7.87;;;-10.90;81.90;;;;;;4945691;29;21414;-80
2021/01/17 07:48:21;;;;;;;32.73;13.87;;;-11.00;81.30;;;;;;4925060;28;20463;-79
2021/01/17 07:50:50;;;;;;;27.40;15.50;;;-11.10;81.80;;;;;;4929688;28;20480;-81
2021/01/17 07:53:33;;;;;;;31.70;14.93;;;-11.00;82.00;;;;;;4922864;29;20869;-80
2021/01/17 07:56:06;;;;;;;26.90;14.00;;;-11.00;81.80;;;;;;4929624;28;20479;-80
2021/01/17 07:58:48;;;;;;;20.53;11.60;;;-11.00;81.80;;;;;;4924376;28;20900;-78
2021/01/17 08:01:42;;;;;;;27.80;14.43;;;-10.90;82.00;;;;;;4934374;28;20461;-80
2021/01/17 08:04:28;;;;;;;25.90;13.50;;;-10.90;81.60;;;;;;4934511;28;20506;-79
2021/01/17 08:06:58;;;;;;;26.97;13.80;;;-10.80;81.70;;;;;;4942577;28;20453;-79
2021/01/17 08:09:48;;;;;;;31.23;14.30;;;-10.80;81.20;;;;;;4947968;28;20460;-79
2021/01/17 08:12:47;;;;;;;13.53;7.57;;;-10.70;81.40;;;;;;4953509;28;20473;-79
2021/01/17 08:15:24;;;;;;;30.43;14.60;;;-10.70;80.90;;;;;;4951352;28;20769;-80
2021/01/17 08:17:52;;;;;;;28.83;15.83;;;-10.60;81.10;;;;;;4947351;28;20507;-80
2021/01/17 08:20:22;;;;;;;31.40;15.20;;;-10.60;81.00;;;;;;4938963;28;20455;-80
2021/01/17 08:22:49;;;;;;;26.77;14.77;;;-10.50;81.00;;;;;;4932621;28;20463;-81
2021/01/17 08:25:59;;;;;;;28.77;9.30;;;-10.50;80.40;;;;;;4932277;28;20475;-80
2021/01/17 08:28:41;;;;;;;27.00;14.03;;;-10.60;80.40;;;;;;4925828;28;20457;-82
2021/01/17 08:31:42;;;;;;;33.03;15.00;;;-10.60;80.40;;;;;;4930061;28;20480;-79
2021/01/17 08:34:16;;;;;;;33.93;15.70;;;-10.40;80.80;;;;;;4928921;28;20769;-79
2021/01/17 08:36:46;;;;;;;27.37;14.20;;;-10.30;80.50;;;;;;4923525;28;20469;-81
2021/01/17 08:39:14;;;;;;;10.27;6.57;;;-10.20;80.40;;;;;;4929864;29;20489;-80
2021/01/17 08:41:45;;;;;;;27.03;15.10;;;-10.20;80.20;;;;;;4929672;28;20476;-79
2021/01/17 08:44:15;;;;;;;32.57;15.73;;;-10.10;80.70;;;;;;4924248;28;20474;-80
2021/01/17 08:46:44;;;;;;;28.07;15.47;;;-10.00;80.30;;;;;;4933916;28;20492;-80
2021/01/17 08:49:12;;;;;;;32.43;15.43;;;-10.20;79.90;;;;;;4936552;28;20576;-80
2021/01/17 08:51:41;;;;;;;27.13;14.90;;;-9.80;80.10;;;;;;4929228;28;20533;-80
2021/01/17 08:54:29;;;;;;;28.77;14.73;;;-9.80;79.60;;;;;;4926486;28;20458;-79
2021/01/17 08:56:57;;;;;;;10.20;8.10;;;-9.90;79.60;;;;;;4921039;28;20449;-81
2021/01/17 08:59:45;;;;;;;25.17;14.93;;;-10.00;79.40;;;;;;4926433;29;20549;-79
2021/01/17 09:02:16;;;;;;;26.50;15.70;;;-10.10;79.70;;;;;;4933954;28;20464;-78
2021/01/17 09:04:48;;;;;;;29.57;14.67;;;-10.00;80.00;;;;;;4930993;29;20469;-79
2021/01/17 09:07:34;;;;;;;36.20;14.63;;;-10.00;79.90;;;;;;4943710;28;20482;-80
2021/01/17 09:10:07;;;;;;;16.97;9.67;;;-10.00;79.70;;;;;;4936360;28;20472;-80
2021/01/17 09:12:36;;;;;;;28.80;16.13;;;-9.90;79.60;;;;;;4937311;28;20567;-80
2021/01/17 09:15:16;;;;;;;19.70;11.43;;;-9.80;79.50;;;;;;4920823;29;20544;-80
2021/01/17 09:17:57;;;;;;;31.97;14.17;;;-9.80;79.20;;;;;;4924277;29;20475;-80
2021/01/17 09:20:27;;;;;;;34.67;20.13;;;-9.90;78.80;;;;;;4952042;28;20482;-81
2021/01/17 09:22:58;;;;;;;28.60;14.77;;;-10.00;78.80;;;;;;4946909;28;20952;-80
2021/01/17 09:25:27;;;;;;;35.47;18.80;;;-10.50;78.90;;;;;;4956524;28;20709;-78
2021/01/17 09:27:55;;;;;;;41.23;19.73;;;-10.60;79.30;;;;;;4951073;28;20464;-79
2021/01/17 09:30:27;;;;;;;33.50;19.47;;;-10.60;79.40;;;;;;4936058;28;20478;-81
2021/01/17 09:32:58;;;;;;;17.40;8.17;;;-10.50;79.30;;;;;;4954166;28;20468;-81
2021/01/17 09:35:26;;;;;;;37.43;19.83;;;-10.70;78.60;;;;;;4949216;29;20464;-81
2021/01/17 09:37:59;;;;;;;48.27;22.03;;;-10.90;78.70;;;;;;4946416;28;20455;-78
2021/01/17 09:40:28;;;;;;;30.07;14.07;;;-10.80;79.20;;;;;;4960972;28;20729;-80
2021/01/17 09:43:01;;;;;;;37.77;18.70;;;-10.80;78.80;;;;;;4942452;28;20472;-82
2021/01/17 09:45:29;;;;;;;38.43;21.13;;;-10.90;78.40;;;;;;4936344;29;20658;-80
2021/01/17 09:48:00;;;;;;;40.93;21.27;;;-10.80;79.10;;;;;;4934858;28;21118;-81
2021/01/17 09:50:32;;;;;;;46.43;22.17;;;-10.80;78.60;;;;;;4936902;28;20465;-81
2021/01/17 09:53:05;;;;;;;40.43;20.73;;;-10.90;78.40;;;;;;4927639;28;20475;-80
2021/01/17 09:55:33;;;;;;;20.70;12.20;;;-10.90;78.70;;;;;;4934323;28;21075;-81
2021/01/17 09:58:06;;;;;;;35.33;17.17;;;-11.00;78.70;;;;;;4934397;28;20472;-81
2021/01/17 10:00:34;;;;;;;41.30;18.63;;;-11.10;78.70;;;;;;4942896;28;20578;-79
2021/01/17 10:03:09;;;;;;;43.70;19.13;;;-11.10;78.90;;;;;;4928345;28;20557;-78
2021/01/17 10:05:38;;;;;;;33.03;15.50;;;-11.20;78.80;;;;;;4938241;28;20498;-80
2021/01/17 10:08:08;;;;;;;38.57;16.87;;;-11.20;78.80;;;;;;4948756;28;20922;-80
2021/01/17 10:10:37;;;;;;;33.37;18.63;;;-11.10;79.10;;;;;;4937495;28;20982;-80
2021/01/17 10:13:07;;;;;;;25.73;13.07;;;-10.90;78.70;;;;;;4942414;28;20539;-81
2021/01/17 10:15:39;;;;;;;37.00;17.17;;;-11.00;78.30;;;;;;4928328;29;20468;-81
2021/01/17 10:18:09;;;;;;;25.70;14.00;;;-11.20;78.80;;;;;;4926245;28;20721;-81
2021/01/17 10:20:38;;;;;;;17.80;11.87;;;-11.20;78.70;;;;;;4930917;28;20501;-80
2021/01/17 10:23:09;;;;;;;18.77;10.43;;;-11.30;79.20;;;;;;4931567;28;20458;-79
2021/01/17 10:25:38;;;;;;;29.37;15.03;;;-11.40;79.10;;;;;;4934175;28;20906;-81
2021/01/17 10:28:08;;;;;;;32.27;15.17;;;-11.20;80.10;;;;;;4927935;29;20466;-78
2021/01/17 10:30:40;;;;;;;31.57;19.07;;;-11.10;81.70;;;;;;4931292;28;20899;-82
2021/01/17 10:33:10;;;;;;;19.03;10.13;;;-11.20;80.80;;;;;;4940696;28;20458;-81
2021/01/17 10:35:40;;;;;;;38.73;17.33;;;-11.20;81.80;;;;;;4934859;29;20569;-81
2021/01/17 10:38:10;;;;;;;41.97;25.27;;;-11.10;82.40;;;;;;4929420;29;20535;-81
2021/01/17 10:40:40;;;;;;;21.13;12.67;;;-10.90;81.50;;;;;;4942180;29;20497;-80
2021/01/17 10:43:16;;;;;;;37.30;15.67;;;-11.00;81.10;;;;;;4928917;29;20500;-82
2021/01/17 10:45:54;;;;;;;36.00;17.53;;;-10.90;81.30;;;;;;4930908;28;20472;-80
2021/01/17 10:48:23;;;;;;;34.87;17.23;;;-10.90;80.50;;;;;;4941579;28;20463;-79
2021/01/17 10:50:54;;;;;;;23.90;15.90;;;-10.80;80.60;;;;;;4940670;28;20473;-80
2021/01/17 10:53:26;;;;;;;32.80;16.87;;;-10.70;80.30;;;;;;4934885;28;20453;-79
2021/01/17 10:55:55;;;;;;;30.53;14.13;;;-10.70;79.90;;;;;;4938505;28;20509;-80
2021/01/17 10:58:25;;;;;;;35.83;18.90;;;-10.60;80.00;;;;;;4937587;28;20538;-80
2021/01/17 11:00:53;;;;;;;19.37;9.60;;;-10.60;79.80;;;;;;4946788;28;20466;-79
2021/01/17 11:03:29;;;;;;;29.47;15.53;;;-10.40;80.00;;;;;;4934477;29;21310;-80
2021/01/17 11:06:07;;;;;;;42.13;18.60;;;-10.50;78.80;;;;;;4951212;28;20452;-80
2021/01/17 11:08:42;;;;;;;24.20;12.27;;;-10.60;79.20;;;;;;4967432;28;20441;-80
2021/01/17 11:11:12;;;;;;;42.50;19.97;;;-10.70;78.70;;;;;;4948179;28;20466;-81
2021/01/17 11:13:40;;;;;;;36.20;19.53;;;-10.70;79.30;;;;;;4938712;28;20485;-79
2021/01/17 11:16:09;;;;;;;43.03;19.50;;;-10.80;79.20;;;;;;4939515;28;20463;-80
2021/01/17 11:18:39;;;;;;;36.43;17.77;;;-10.50;79.20;;;;;;4939023;28;20733;-81
2021/01/17 11:21:09;;;;;;;19.20;9.13;;;-10.30;79.40;;;;;;4933216;28;20674;-81
2021/01/17 11:23:37;;;;;;;35.70;17.50;;;-10.30;79.00;;;;;;4938459;28;20477;-80
2021/01/17 11:26:07;;;;;;;41.87;20.83;;;-10.20;79.60;;;;;;4943358;29;20690;-80
2021/01/17 11:28:35;;;;;;;33.97;18.67;;;-10.20;78.90;;;;;;4941823;28;20578;-81
2021/01/17 11:31:16;;;;;;;17.27;9.40;;;-10.20;78.20;;;;;;4949592;29;20495;-79
2021/01/17 11:33:47;;;;;;;40.20;19.27;;;-10.30;78.50;;;;;;4949073;28;20464;-80
2021/01/17 11:36:18;;;;;;;40.50;22.00;;;-10.40;78.70;;;;;;4940482;28;20472;-79
2021/01/17 11:38:48;;;;;;;39.27;21.10;;;-10.20;78.80;;;;;;4941717;29;20485;-80
2021/01/17 11:41:17;;;;;;;44.87;22.57;;;-10.00;78.20;;;;;;4934113;28;20448;-82
2021/01/17 11:43:45;;;;;;;44.70;21.93;;;-9.80;78.80;;;;;;4937811;28;20486;-80
2021/01/17 11:46:14;;;;;;;46.63;20.73;;;-9.60;78.80;;;;;;4949641;28;20468;-80
2021/01/17 11:48:44;;;;;;;42.53;20.77;;;-9.50;78.00;;;;;;4937977;28;21023;-80
2021/01/17 11:51:23;;;;;;;40.77;20.53;;;-9.40;77.90;;;;;;4941249;28;20465;-80
2021/01/17 11:53:51;;;;;;;31.73;16.07;;;-9.50;77.50;;;;;;4937760;29;20465;-80
2021/01/17 11:56:19;;;;;;;21.60;8.73;;;-9.60;77.90;;;;;;4936551;29;20466;-80
2021/01/17 11:58:47;;;;;;;33.63;18.70;;;-9.90;77.70;;;;;;4949277;28;20511;-80
2021/01/17 12:01:25;;;;;;;36.03;17.33;;;-9.90;78.40;;;;;;4950491;28;20844;-79
2021/01/17 12:04:00;;;;;;;36.30;19.47;;;-9.80;78.40;;;;;;4940600;28;20769;-80
2021/01/17 12:06:29;;;;;;;34.47;16.03;;;-9.60;79.00;;;;;;4929354;29;20778;-80
2021/01/17 12:08:59;;;;;;;38.13;18.30;;;-9.70;77.90;;;;;;4965913;28;20491;-79
2021/01/17 12:11:38;;;;;;;38.00;18.10;;;-9.80;78.10;;;;;;4938915;28;20500;-80
2021/01/17 12:14:12;;;;;;;33.00;17.47;;;-9.80;78.60;;;;;;4938935;28;20568;-81
2021/01/17 12:16:41;;;;;;;32.73;15.63;;;-9.60;78.90;;;;;;4946963;28;20795;-79
2021/01/17 12:19:11;;;;;;;41.07;19.17;;;-9.70;78.50;;;;;;4935339;29;20580;-80
2021/01/17 12:21:41;;;;;;;31.00;14.13;;;-9.60;78.70;;;;;;4932012;28;21096;-81
2021/01/17 12:24:11;;;;;;;37.53;18.53;;;-9.60;78.50;;;;;;4941947;28;20484;-79
2021/01/17 12:26:40;;;;;;;37.43;20.17;;;-9.50;78.70;;;;;;4936565;29;20946;-82
2021/01/17 12:29:09;;;;;;;39.40;20.93;;;-9.40;79.00;;;;;;4942559;28;20457;-80
2021/01/17 12:31:37;;;;;;;36.97;19.50;;;-9.40;78.50;;;;;;4943212;28;20466;-81
2021/01/17 12:34:07;;;;;;;38.17;19.70;;;-9.40;78.70;;;;;;4948554;29;20530;-80
2021/01/17 12:36:37;;;;;;;36.67;19.07;;;-9.50;78.20;;;;;;4950581;28;20442;-79
2021/01/17 12:39:08;;;;;;;18.90;10.43;;;-9.70;78.30;;;;;;4957665;28;20489;-82
2021/01/17 12:41:43;;;;;;;29.37;15.97;;;-9.70;78.40;;;;;;4940986;29;20964;-80